LiveATC.Net - Listen to live air traffic control over the Internet!


ICAO: PASC  IATA: SCC   Airport: Deadhorse Airport
City: Deadhorse   State/Province: Alaska
Country: United States   Continent: North America
PASC METAR Weather: PASC 181153Z 21005KT 10SM SCT095 M03/M07 A3042 RMK AO2 SLP302 T10281067 11022 21078 56012 $
PASC Flight Activity (FlightAware)
PASC Airport Info   (iFlightPlanner)
PASC VFR Sectional Chart   (iFlightPlanner) 
PASC IFR Low Chart   (iFlightPlanner) 

PASC CTAF/Unicom/AFIS/App
Feed Status: UP   Listeners: 1
Listen in your browser - HTML5 player (in browser, HTML5)
Click here to listen with your own player (launches your MP3 player)
Archive Access: PASC CTAF/Unicom/AFIS/App
FacilityFrequency
Deadhorse AFIS118.400
Deadhorse CTAF123.600
Deadhorse UNICOM123.000

NOTICE

Unauthorized use prohibited. See LiveATC.net Terms of Service


Airport/ARTCC Code
Frequency Search
(e.g., 124.400, 128.75)
Site-wide search
 


Browse Feeds
Top 50 Feeds
HF Oceanic Feeds
Coverage Map
Bad Weather Areas

LiveATC FAQ
Offer LiveATC feed
Contact LiveATC.net
Press Inquiries

LiveATC on iPhone
LiveATC on Android

Windows Phone
Windows 8/10

LiveATC Mobile
(Mobile browser)

ATC Audio Archives
Interesting Recordings

LiveATC Forums


Home Page
About LiveATC.net
Make a Donation
Terms of Use
Privacy Policy

Canadian Air Freqs

AIRMETs/SIGMETs

FAA Airport Status
Nat'l Airspace Status
Arrival Demand Charts


Server Software By:
Icecast.org
Liquidsoap